Time;durP1;ratioP1;P1;durP2;ratioP2;P2;SDS_P1;SDS_P2;PMS_P1;PMS_P2;Temp;Humidity;BMP_temperature;BMP_pressure;BME280_temperature;BME280_humidity;BME280_pressure;Samples;Min_cycle;Max_cycle;Signal;HPM_P1;HPM_P2
2023/09/17 00:00:34;;;;;;;;;;;;;;;29.47;70.36;100821.09;5016968;28;70310;-40
2023/09/17 00:03:04;;;;;;;;;;;;;;;29.49;70.92;100824.41;5028315;28;65807;-38
2023/09/17 00:05:33;;;;;;;;;;;;;;;29.50;70.91;100836.88;5018110;28;69994;-38
2023/09/17 00:08:05;;;;;;;;;;;;;;;29.54;72.07;100838.13;5023299;28;66103;-37
2023/09/17 00:10:37;;;;;;;;;;;;;;;29.56;72.31;100846.84;5025297;28;69267;-38
2023/09/17 00:13:06;;;;;;;;;;;;;;;29.59;71.89;100852.66;5012267;28;65202;-38
2023/09/17 00:15:36;;;;;;;;;;;;;;;29.58;72.65;100852.88;5029953;28;70570;-38
2023/09/17 00:18:06;;;;;;;;;;;;;;;29.64;72.98;100853.91;5031062;28;66081;-39
2023/09/17 00:20:35;;;;;;;;;;;;;;;29.66;72.39;100862.66;5031014;28;69646;-38
2023/09/17 00:23:05;;;;;;;;;;;;;;;29.66;72.58;100863.47;5015764;28;65483;-38
2023/09/17 00:25:35;;;;;;;;;;;;;;;29.67;72.43;100870.56;5014276;28;70257;-39
2023/09/17 00:28:04;;;;;;;;;;;;;;;29.69;72.17;100873.88;5005852;28;66489;-38
2023/09/17 00:30:34;;;;;;;;;;;;;;;29.70;72.51;100872.84;5005379;28;70349;-38
2023/09/17 00:33:04;;;;;;;;;;;;;;;29.73;72.78;100875.13;5023096;28;66079;-38
2023/09/17 00:35:36;;;;;;;;;;;;;;;29.76;72.83;100882.81;5005667;28;70495;-39
2023/09/17 00:38:05;;;;;;;;;;;;;;;29.79;73.28;100885.06;5017149;28;65454;-40
2023/09/17 00:40:37;;;;;;;;;;;;;;;29.81;73.82;100884.84;5015151;28;69958;-38
2023/09/17 00:43:08;;;;;;;;;;;;;;;29.83;74.01;100891.72;5020255;28;65562;-39
2023/09/17 00:45:39;;;;;;;;;;;;;;;29.84;73.25;100889.84;4996478;28;71288;-38
2023/09/17 00:48:09;;;;;;;;;;;;;;;29.90;73.86;100899.00;5013606;28;66333;-37
2023/09/17 00:50:39;;;;;;;;;;;;;;;29.94;74.29;100908.31;5001497;28;70280;-38
2023/09/17 00:53:09;;;;;;;;;;;;;;;29.95;74.22;100905.41;5011061;28;66862;-38
2023/09/17 00:55:39;;;;;;;;;;;;;;;29.98;73.04;100909.56;5011044;28;69521;-37
2023/09/17 00:58:09;;;;;;;;;;;;;;;29.99;71.65;100905.81;5002219;28;66297;-40
2023/09/17 01:00:39;;;;;;;;;;;;;;;30.01;70.58;100907.25;5032058;28;69737;-38
2023/09/17 01:03:09;;;;;;;;;;;;;;;30.03;70.34;100907.03;5023074;28;66068;-42
2023/09/17 01:05:42;;;;;;;;;;;;;;;30.05;69.94;100904.94;5022196;28;69328;-39
2023/09/17 01:08:12;;;;;;;;;;;;;;;30.09;70.07;100916.16;5003336;28;67056;-37
2023/09/17 01:10:42;;;;;;;;;;;;;;;30.10;69.07;100918.66;5016032;28;70535;-39
2023/09/17 01:13:12;;;;;;;;;;;;;;;30.12;69.82;100927.41;5021673;28;66627;-39
2023/09/17 01:15:41;;;;;;;;;;;;;;;30.14;68.85;100919.88;5014168;28;70630;-37
2023/09/17 01:18:11;;;;;;;;;;;;;;;30.17;70.18;100918.63;5023815;28;66385;-39
2023/09/17 01:21:01;;;;;;;;;;;;;;;30.20;70.70;100918.19;5016252;28;69613;-38
2023/09/17 01:23:41;;;;;;;;;;;;;;;30.21;69.54;100918.00;5021297;28;66315;-39
2023/09/17 01:26:15;;;;;;;;;;;;;;;30.22;69.34;100930.50;5022002;28;71017;-38
2023/09/17 01:28:45;;;;;;;;;;;;;;;30.26;69.07;100930.94;5013284;28;66682;-39
2023/09/17 01:31:15;;;;;;;;;;;;;;;30.28;69.61;100921.53;5021435;28;70126;-44
2023/09/17 01:33:45;;;;;;;;;;;;;;;30.31;69.36;100924.84;5001800;28;64963;-39
2023/09/17 01:36:19;;;;;;;;;;;;;;;30.33;69.19;100917.34;4978702;28;70096;-38
2023/09/17 01:38:52;;;;;;;;;;;;;;;30.36;70.95;100927.75;5024902;28;66007;-38
2023/09/17 01:41:25;;;;;;;;;;;;;;;30.38;74.02;100928.38;5004422;28;69244;-37
2023/09/17 01:43:55;;;;;;;;;;;;;;;30.38;75.20;100925.66;5011770;28;66112;-39
2023/09/17 01:46:26;;;;;;;;;;;;;;;30.37;75.82;100919.41;4993557;28;69616;-38
2023/09/17 01:48:56;;;;;;;;;;;;;;;30.41;76.18;100925.22;5004697;28;65738;-39
2023/09/17 01:51:29;;;;;;;;;;;;;;;30.40;75.74;100918.16;5001901;28;69378;-39
2023/09/17 01:54:00;;;;;;;;;;;;;;;30.41;76.79;100930.63;4983928;28;66771;-39
2023/09/17 01:56:29;;;;;;;;;;;;;;;30.44;76.98;100930.19;5006377;28;70062;-37
2023/09/17 01:58:59;;;;;;;;;;;;;;;30.48;77.27;100937.69;5024179;28;66835;-38
2023/09/17 02:01:28;;;;;;;;;;;;;;;30.49;77.29;100941.22;5005280;28;70157;-37
2023/09/17 02:03:58;;;;;;;;;;;;;;;30.50;77.05;100945.56;5023305;28;66387;-37
2023/09/17 02:06:27;;;;;;;;;;;;;;;30.51;77.22;100936.44;5004845;28;69237;-38
2023/09/17 02:08:58;;;;;;;;;;;;;;;30.53;76.99;100939.72;5022451;28;66188;-38
2023/09/17 02:11:27;;;;;;;;;;;;;;;30.56;76.47;100943.88;5022393;28;69502;-37
2023/09/17 02:13:57;;;;;;;;;;;;;;;30.58;76.89;100939.91;5028514;28;66703;-39
2023/09/17 02:16:27;;;;;;;;;;;;;;;30.59;75.58;100944.28;5014421;28;70025;-37
2023/09/17 02:18:56;;;;;;;;;;;;;;;30.61;75.73;100946.75;5004241;28;67384;-37
2023/09/17 02:21:26;;;;;;;;;;;;;;;30.61;76.19;100942.19;5023843;28;70318;-37
2023/09/17 02:23:56;;;;;;;;;;;;;;;30.59;76.06;100949.72;5011550;28;66659;-37
2023/09/17 02:26:26;;;;;;;;;;;;;;;30.61;74.94;100942.19;5026278;28;69231;-39
2023/09/17 02:28:58;;;;;;;;;;;;;;;30.60;76.24;100951.34;5018816;28;66712;-38
2023/09/17 02:31:28;;;;;;;;;;;;;;;30.62;75.86;100951.97;5022164;28;69042;-37
2023/09/17 02:33:57;;;;;;;;;;;;;;;30.68;75.31;100951.09;5018279;28;66569;-38
2023/09/17 02:36:28;;;;;;;;;;;;;;;30.73;74.68;100948.56;5020124;28;69613;-38
2023/09/17 02:38:57;;;;;;;;;;;;;;;30.79;73.85;100943.34;5024058;28;66874;-39
2023/09/17 02:41:27;;;;;;;;;;;;;;;30.84;74.03;100946.22;5017512;28;70033;-37
2023/09/17 02:43:59;;;;;;;;;;;;;;;30.88;73.43;100937.47;5025482;28;67644;-36
2023/09/17 02:46:29;;;;;;;;;;;;;;;30.93;73.12;100944.94;4987396;28;70268;-36
2023/09/17 02:48:58;;;;;;;;;;;;;;;30.98;72.87;100947.81;5001935;28;67246;-37
2023/09/17 02:51:28;;;;;;;;;;;;;;;31.02;72.92;100943.63;4987675;28;69093;-36
2023/09/17 02:53:58;;;;;;;;;;;;;;;31.05;72.34;100943.16;5002939;28;66340;-37
2023/09/17 02:56:28;;;;;;;;;;;;;;;31.08;71.92;100940.03;4996395;28;70275;-37
2023/09/17 02:58:58;;;;;;;;;;;;;;;31.12;72.52;100940.41;5021880;28;66759;-37
2023/09/17 03:01:27;;;;;;;;;;;;;;;31.14;72.04;100935.59;5014589;28;69392;-36
2023/09/17 03:03:57;;;;;;;;;;;;;;;31.15;71.80;100935.38;4996625;28;67117;-37
2023/09/17 03:06:27;;;;;;;;;;;;;;;31.20;71.46;100932.00;5013690;28;70153;-37
2023/09/17 03:08:57;;;;;;;;;;;;;;;31.24;71.68;100929.69;5019846;28;65070;-40
2023/09/17 03:11:29;;;;;;;;;;;;;;;31.26;71.40;100927.56;5000167;28;70409;-37
2023/09/17 03:14:01;;;;;;;;;;;;;;;31.30;71.30;100935.03;5008373;28;65362;-37
2023/09/17 03:16:31;;;;;;;;;;;;;;;31.33;71.08;100928.34;4991456;28;70114;-38
2023/09/17 03:19:01;;;;;;;;;;;;;;;31.35;71.07;100921.66;5019802;28;65483;-39
2023/09/17 03:21:30;;;;;;;;;;;;;;;31.36;71.03;100917.91;5016894;28;69694;-37
2023/09/17 03:24:00;;;;;;;;;;;;;;;31.39;70.82;100911.22;5017528;28;66835;-37
2023/09/17 03:26:29;;;;;;;;;;;;;;;31.41;70.87;100911.84;5003094;28;70437;-37
2023/09/17 03:28:59;;;;;;;;;;;;;;;31.39;71.38;100916.66;5008668;28;66712;-39
2023/09/17 03:31:29;;;;;;;;;;;;;;;31.29;72.16;100908.19;5001172;28;70734;-38
2023/09/17 03:33:59;;;;;;;;;;;;;;;31.24;73.10;100905.31;4995939;28;65901;-39
2023/09/17 03:36:28;;;;;;;;;;;;;;;31.10;70.72;100899.16;5019645;28;70398;-37
2023/09/17 03:38:59;;;;;;;;;;;;;;;31.00;70.21;100905.06;5002755;28;66180;-39
2023/09/17 03:41:30;;;;;;;;;;;;;;;30.91;69.24;100898.28;5022586;28;70208;-36
2023/09/17 03:43:59;;;;;;;;;;;;;;;30.84;68.91;100897.47;4985711;28;66421;-37
2023/09/17 03:46:32;;;;;;;;;;;;;;;30.80;67.59;100890.84;5010882;28;69822;-38
2023/09/17 03:49:03;;;;;;;;;;;;;;;30.58;67.20;100866.81;4995022;28;66906;-37
2023/09/17 03:51:35;;;;;;;;;;;;;;;30.70;65.80;100897.56;5000434;28;63665;-36
2023/09/17 03:54:05;;;;;;;;;;;;;;;30.66;65.10;100895.50;5004596;28;65495;-36
2023/09/17 03:56:34;;;;;;;;;;;;;;;30.61;65.36;100888.03;5001928;28;69973;-36
2023/09/17 03:59:05;;;;;;;;;;;;;;;30.59;64.53;100884.72;5022291;28;67285;-37
2023/09/17 04:01:37;;;;;;;;;;;;;;;30.55;64.25;100885.38;4996411;28;71929;-36
2023/09/17 04:04:07;;;;;;;;;;;;;;;30.56;63.57;100879.72;5000077;28;66469;-36
2023/09/17 04:06:38;;;;;;;;;;;;;;;30.51;63.36;100874.16;5013127;28;70341;-38
2023/09/17 04:09:09;;;;;;;;;;;;;;;30.50;62.96;100864.38;4986202;28;66561;-38
2023/09/17 04:11:40;;;;;;;;;;;;;;;30.49;62.15;100868.13;4989406;28;69442;-38
2023/09/17 04:14:11;;;;;;;;;;;;;;;30.47;61.36;100870.22;4983310;28;66192;-37
2023/09/17 04:16:41;;;;;;;;;;;;;;;30.48;60.73;100855.66;5011790;28;69758;-37
2023/09/17 04:19:11;;;;;;;;;;;;;;;30.51;61.39;100849.81;5011435;28;66294;-39
2023/09/17 04:21:41;;;;;;;;;;;;;;;30.53;62.08;100850.38;5010752;28;70446;-38
2023/09/17 04:24:12;;;;;;;;;;;;;;;30.50;61.18;100848.13;5002137;28;66733;-38
2023/09/17 04:26:44;;;;;;;;;;;;;;;30.49;60.92;100835.66;5008915;28;69012;-38
2023/09/17 04:29:14;;;;;;;;;;;;;;;30.52;61.74;100840.63;5005263;28;65613;-40
2023/09/17 04:31:43;;;;;;;;;;;;;;;30.48;61.09;100824.00;5000913;28;69398;-36
2023/09/17 04:34:14;;;;;;;;;;;;;;;30.50;60.16;100818.34;4999415;28;67084;-37
2023/09/17 04:36:44;;;;;;;;;;;;;;;30.50;59.40;100821.88;4992649;28;69749;-37
2023/09/17 04:39:14;;;;;;;;;;;;;;;30.45;58.97;100815.47;5018750;28;66150;-38
2023/09/17 04:41:44;;;;;;;;;;;;;;;30.44;58.87;100811.09;5001682;28;69654;-38
2023/09/17 04:44:14;;;;;;;;;;;;;;;30.61;60.61;100812.22;5013437;28;66069;-38
2023/09/17 04:46:44;;;;;;;;;;;;;;;30.74;62.46;100811.31;5013919;28;70197;-40
2023/09/17 04:49:14;;;;;;;;;;;;;;;30.89;63.92;100811.00;5011524;28;65821;-39
2023/09/17 04:51:44;;;;;;;;;;;;;;;31.02;64.14;100808.16;5020554;28;70449;-39
2023/09/17 04:54:13;;;;;;;;;;;;;;;31.09;64.41;100789.13;5009283;28;66956;-38
2023/09/17 04:56:43;;;;;;;;;;;;;;;31.20;65.03;100782.13;5009884;28;69473;-38
2023/09/17 04:59:13;;;;;;;;;;;;;;;31.27;64.47;100785.63;4999594;28;65873;-39
2023/09/17 05:01:42;;;;;;;;;;;;;;;31.32;64.17;100788.47;5020684;28;69807;-38
2023/09/17 05:04:12;;;;;;;;;;;;;;;31.38;64.43;100780.28;4992171;28;66984;-38
2023/09/17 05:06:44;;;;;;;;;;;;;;;31.43;64.23;100771.50;5024145;28;70210;-37
2023/09/17 05:09:14;;;;;;;;;;;;;;;31.47;63.55;100764.56;4996999;28;66146;-38
2023/09/17 05:11:44;;;;;;;;;;;;;;;31.47;61.84;100756.41;5002179;28;70234;-38
2023/09/17 05:14:13;;;;;;;;;;;;;;;31.41;61.16;100741.06;5008904;28;66178;-37
2023/09/17 05:16:43;;;;;;;;;;;;;;;31.37;59.42;100747.97;5005877;28;70121;-36
2023/09/17 05:19:13;;;;;;;;;;;;;;;31.36;58.42;100738.22;5025047;28;66349;-38
2023/09/17 05:21:43;;;;;;;;;;;;;;;31.31;57.71;100732.59;5014717;28;70007;-37
2023/09/17 05:24:13;;;;;;;;;;;;;;;31.29;56.53;100726.59;5020658;28;66990;-37
2023/09/17 05:26:43;;;;;;;;;;;;;;;31.25;55.64;100719.97;5005491;28;70422;-37
2023/09/17 05:29:16;;;;;;;;;;;;;;;31.22;55.76;100709.59;5003901;28;65494;-35
2023/09/17 05:31:47;;;;;;;;;;;;;;;31.21;56.76;100697.91;5017011;28;70068;-37
2023/09/17 05:34:19;;;;;;;;;;;;;;;31.19;56.33;100688.34;5018651;28;66373;-38
2023/09/17 05:36:49;;;;;;;;;;;;;;;31.19;55.75;100694.59;5016612;28;70383;-38
2023/09/17 05:39:18;;;;;;;;;;;;;;;31.17;55.19;100685.88;5001017;28;66585;-38
2023/09/17 05:41:48;;;;;;;;;;;;;;;31.16;54.34;100674.22;5020192;28;69886;-37
2023/09/17 05:44:17;;;;;;;;;;;;;;;31.21;53.93;100675.41;5009373;28;66328;-38
2023/09/17 05:46:47;;;;;;;;;;;;;;;31.23;53.67;100678.72;5004126;28;69402;-38
2023/09/17 05:49:17;;;;;;;;;;;;;;;31.21;53.20;100678.94;5003315;28;66606;-35
2023/09/17 05:51:47;;;;;;;;;;;;;;;31.23;53.05;100668.72;5024147;28;70196;-37
2023/09/17 05:54:18;;;;;;;;;;;;;;;31.06;52.77;100640.56;5000599;28;66495;-38
2023/09/17 05:56:50;;;;;;;;;;;;;;;31.27;52.25;100669.09;5005925;28;69688;-37
2023/09/17 05:59:19;;;;;;;;;;;;;;;31.26;51.61;100667.41;5016002;28;66352;-39
2023/09/17 06:01:50;;;;;;;;;;;;;;;31.09;51.78;100659.94;5009146;28;70472;-38
2023/09/17 06:04:19;;;;;;;;;;;;;;;31.03;51.83;100647.28;5024452;28;66616;-39
2023/09/17 06:06:49;;;;;;;;;;;;;;;31.01;52.36;100638.56;5016687;28;70725;-38
2023/09/17 06:09:19;;;;;;;;;;;;;;;31.00;52.40;100642.31;5015074;28;65917;-39
2023/09/17 06:11:48;;;;;;;;;;;;;;;30.98;52.58;100628.19;5016534;28;70141;-36
2023/09/17 06:14:19;;;;;;;;;;;;;;;30.95;52.45;100628.59;5023862;28;66611;-40
2023/09/17 06:16:49;;;;;;;;;;;;;;;30.96;53.41;100616.75;4998886;28;70009;-36
2023/09/17 06:19:27;;;;;;;;;;;;;;;30.88;53.56;100627.88;5027610;28;66304;-38
2023/09/17 06:21:57;;;;;;;;;;;;;;;30.82;53.37;100623.38;5018693;28;70202;-37
2023/09/17 06:24:27;;;;;;;;;;;;;;;30.79;53.33;100629.22;5011613;28;65341;-38
2023/09/17 06:26:57;;;;;;;;;;;;;;;30.71;53.18;100611.38;5009811;28;70274;-37
2023/09/17 06:29:27;;;;;;;;;;;;;;;30.66;53.20;100609.34;4990772;28;66395;-37
2023/09/17 06:31:57;;;;;;;;;;;;;;;30.64;53.11;100597.91;5002929;28;70426;-39
2023/09/17 06:34:29;;;;;;;;;;;;;;;30.64;53.39;100600.59;5023252;28;65502;-37
2023/09/17 06:36:58;;;;;;;;;;;;;;;30.62;52.92;100586.50;5019645;28;68931;-40
2023/09/17 06:39:28;;;;;;;;;;;;;;;30.60;53.26;100588.59;4975274;28;65551;-46
2023/09/17 06:41:58;;;;;;;;;;;;;;;30.65;53.13;100580.63;5015141;28;70223;-37
2023/09/17 06:44:29;;;;;;;;;;;;;;;30.66;52.86;100574.16;5003216;28;67020;-41
2023/09/17 06:46:59;;;;;;;;;;;;;;;30.72;52.35;100565.09;5032534;28;70763;-38
2023/09/17 06:49:28;;;;;;;;;;;;;;;30.73;52.31;100565.97;5009474;28;67032;-43
2023/09/17 06:51:58;;;;;;;;;;;;;;;30.73;52.20;100558.66;5003811;28;70533;-51
2023/09/17 06:54:27;;;;;;;;;;;;;;;30.76;52.41;100543.00;5007635;28;67188;-39
2023/09/17 06:56:57;;;;;;;;;;;;;;;30.78;51.93;100544.41;5006937;28;70758;-36
2023/09/17 06:59:26;;;;;;;;;;;;;;;30.81;51.58;100551.28;5007553;28;65739;-37
2023/09/17 07:01:56;;;;;;;;;;;;;;;30.79;51.56;100545.28;5010888;28;69525;-36
2023/09/17 07:04:25;;;;;;;;;;;;;;;30.78;51.43;100543.59;5000223;28;65691;-36
2023/09/17 07:07:00;;;;;;;;;;;;;;;30.78;50.85;100530.06;4985873;28;70672;-37
2023/09/17 07:09:31;;;;;;;;;;;;;;;30.75;50.67;100535.94;5002442;28;66516;-36
2023/09/17 07:12:01;;;;;;;;;;;;;;;30.71;50.54;100527.44;5018358;28;69044;-39
2023/09/17 07:14:31;;;;;;;;;;;;;;;30.73;50.57;100519.94;5011061;28;66973;-39
2023/09/17 07:17:00;;;;;;;;;;;;;;;30.70;50.13;100518.50;4989629;28;70042;-36
2023/09/17 07:19:33;;;;;;;;;;;;;;;30.69;50.16;100514.13;4993182;28;66647;-38
2023/09/17 07:22:03;;;;;;;;;;;;;;;30.81;49.95;100508.78;5012144;28;69510;-37
2023/09/17 07:24:32;;;;;;;;;;;;;;;30.86;49.71;100518.94;5010165;28;66102;-38
2023/09/17 07:27:03;;;;;;;;;;;;;;;30.89;49.88;100508.47;4993492;28;70080;-39
2023/09/17 07:29:33;;;;;;;;;;;;;;;30.91;49.62;100500.13;5004502;28;68228;-38
2023/09/17 07:32:03;;;;;;;;;;;;;;;30.93;49.44;100498.84;4998066;28;69042;-39
2023/09/17 07:34:33;;;;;;;;;;;;;;;30.95;48.88;100498.59;4989435;28;65554;-38
2023/09/17 07:37:04;;;;;;;;;;;;;;;30.95;48.64;100493.19;5001964;28;70131;-39
2023/09/17 07:39:34;;;;;;;;;;;;;;;30.91;48.46;100494.72;5002298;28;66316;-38
2023/09/17 07:42:04;;;;;;;;;;;;;;;30.86;48.81;100491.88;5007496;28;70045;-37
2023/09/17 07:44:33;;;;;;;;;;;;;;;30.84;48.77;100485.84;5007187;28;66154;-38
2023/09/17 07:47:03;;;;;;;;;;;;;;;30.80;48.60;100480.06;5013707;28;70556;-39
2023/09/17 07:49:35;;;;;;;;;;;;;;;30.77;48.75;100479.69;5022759;28;65494;-38
2023/09/17 07:52:05;;;;;;;;;;;;;;;30.76;48.67;100492.41;5023645;28;70360;-38
2023/09/17 07:54:41;;;;;;;;;;;;;;;30.76;48.52;100489.69;5019996;28;66972;-37
2023/09/17 07:57:11;;;;;;;;;;;;;;;30.75;48.99;100476.38;5017530;28;70489;-39
2023/09/17 07:59:41;;;;;;;;;;;;;;;30.78;48.51;100475.91;5011683;28;65597;-39
2023/09/17 08:02:10;;;;;;;;;;;;;;;30.82;48.98;100471.72;5032456;28;69936;-39
2023/09/17 08:04:40;;;;;;;;;;;;;;;30.85;49.48;100468.56;5015192;28;66962;-37
2023/09/17 08:07:11;;;;;;;;;;;;;;;30.90;49.64;100471.41;5017538;28;70502;-39
2023/09/17 08:09:41;;;;;;;;;;;;;;;30.91;50.25;100463.03;5009279;28;66182;-36
2023/09/17 08:12:10;;;;;;;;;;;;;;;30.95;50.14;100466.09;5015100;28;68939;-36
2023/09/17 08:14:46;;;;;;;;;;;;;;;30.92;50.99;100458.44;5018421;28;66669;-36
2023/09/17 08:17:16;;;;;;;;;;;;;;;30.94;51.06;100448.22;5014227;28;70063;-38
2023/09/17 08:19:45;;;;;;;;;;;;;;;30.97;50.60;100436.91;5016183;28;66170;-38
2023/09/17 08:22:15;;;;;;;;;;;;;;;30.96;50.96;100446.09;5016233;28;70264;-36
2023/09/17 08:25:06;;;;;;;;;;;;;;;31.03;55.28;100440.56;5021938;28;65981;-38
2023/09/17 08:27:55;;;;;;;;;;;;;;;31.23;61.04;100448.38;5009718;28;69533;-36
2023/09/17 08:30:45;;;;;;;;;;;;;;;31.34;62.31;100453.00;5030449;28;66186;-38
2023/09/17 08:33:35;;;;;;;;;;;;;;;31.46;63.75;100467.44;4995675;28;69864;-38
2023/09/17 08:36:15;;;;;;;;;;;;;;;31.53;65.11;100468.13;5015357;28;65812;-38
2023/09/17 08:38:45;;;;;;;;;;;;;;;31.61;65.99;100481.34;5012549;28;70686;-37
2023/09/17 08:41:16;;;;;;;;;;;;;;;31.70;66.58;100483.69;5025659;28;66558;-35
2023/09/17 08:43:46;;;;;;;;;;;;;;;31.79;69.59;100488.56;5001358;28;69789;-37
2023/09/17 08:46:16;;;;;;;;;;;;;;;31.80;69.56;100489.38;5011727;28;65542;-38
2023/09/17 08:48:46;;;;;;;;;;;;;;;31.79;73.04;100521.09;5012433;28;70192;-37
2023/09/17 08:51:18;;;;;;;;;;;;;;;31.86;72.94;100531.81;5015467;28;66428;-36
2023/09/17 08:53:57;;;;;;;;;;;;;;;31.90;72.26;100527.59;5014750;28;69867;-37
2023/09/17 08:56:29;;;;;;;;;;;;;;;31.95;71.98;100524.19;5024071;28;66586;-36
2023/09/17 08:59:01;;;;;;;;;;;;;;;31.97;71.68;100482.19;4994960;28;69075;-37
2023/09/17 09:01:32;;;;;;;;;;;;;;;31.96;71.55;100474.31;5015992;28;65682;-37
2023/09/17 09:04:02;;;;;;;;;;;;;;;31.93;72.36;100489.16;5002608;28;70359;-37
2023/09/17 09:06:32;;;;;;;;;;;;;;;31.94;72.14;100485.38;5021690;28;65240;-36
2023/09/17 09:09:05;;;;;;;;;;;;;;;31.94;71.94;100490.81;5002863;28;70015;-38
2023/09/17 09:11:34;;;;;;;;;;;;;;;31.95;72.06;100525.00;5013785;28;66759;-37
2023/09/17 09:14:04;;;;;;;;;;;;;;;31.95;71.55;100530.44;5014693;28;69541;-36
2023/09/17 09:16:36;;;;;;;;;;;;;;;31.94;71.79;100534.22;5009250;28;66771;-37
2023/09/17 09:19:07;;;;;;;;;;;;;;;31.94;71.71;100523.38;4996680;28;70525;-36
2023/09/17 09:21:37;;;;;;;;;;;;;;;31.96;71.70;100515.81;5008824;28;66854;-36
2023/09/17 09:24:07;;;;;;;;;;;;;;;31.98;72.06;100519.13;4992009;28;69545;-36
2023/09/17 09:26:37;;;;;;;;;;;;;;;32.00;71.72;100525.13;5007599;28;66368;-37
2023/09/17 09:29:08;;;;;;;;;;;;;;;32.13;71.14;100524.06;4998670;28;69701;-36
2023/09/17 09:31:39;;;;;;;;;;;;;;;32.21;70.27;100517.47;5018810;28;66163;-38
2023/09/17 09:34:12;;;;;;;;;;;;;;;32.23;69.71;100518.03;5027656;28;68418;-36
2023/09/17 09:36:44;;;;;;;;;;;;;;;32.26;69.52;100525.69;5016335;28;66476;-37
2023/09/17 09:39:17;;;;;;;;;;;;;;;32.26;69.02;100521.09;5024995;28;68737;-37
2023/09/17 09:41:48;;;;;;;;;;;;;;;32.26;68.83;100520.25;4999564;28;66390;-36
2023/09/17 09:44:17;;;;;;;;;;;;;;;32.25;68.55;100507.75;5013576;28;70179;-39
2023/09/17 09:46:48;;;;;;;;;;;;;;;32.24;68.70;100506.13;5023350;28;65958;-37
2023/09/17 09:49:18;;;;;;;;;;;;;;;32.23;68.70;100509.88;5017879;28;69312;-36
2023/09/17 09:51:47;;;;;;;;;;;;;;;32.20;68.79;100542.94;5014823;28;65335;-36
2023/09/17 09:54:17;;;;;;;;;;;;;;;32.19;68.54;100544.00;5023043;28;69865;-37
2023/09/17 09:56:50;;;;;;;;;;;;;;;32.17;68.43;100527.13;5024963;28;66407;-38
2023/09/17 09:59:21;;;;;;;;;;;;;;;32.15;68.56;100526.53;5020414;28;69718;-36
2023/09/17 10:01:50;;;;;;;;;;;;;;;32.13;68.22;100526.78;5022845;28;66488;-38
2023/09/17 10:04:20;;;;;;;;;;;;;;;32.09;68.45;100522.88;5022384;28;69790;-36
2023/09/17 10:06:50;;;;;;;;;;;;;;;32.08;68.69;100528.56;5020509;28;66074;-38
2023/09/17 10:09:20;;;;;;;;;;;;;;;32.05;68.14;100541.53;4989557;28;69926;-36
2023/09/17 10:11:49;;;;;;;;;;;;;;;32.04;68.34;100553.44;5019784;28;66198;-36
2023/09/17 10:14:21;;;;;;;;;;;;;;;32.03;68.15;100561.81;4990815;28;69457;-35
2023/09/17 10:16:52;;;;;;;;;;;;;;;32.01;68.19;100566.63;5004264;28;66392;-36
2023/09/17 10:19:22;;;;;;;;;;;;;;;32.00;68.30;100575.84;5023021;28;70616;-36
2023/09/17 10:21:53;;;;;;;;;;;;;;;31.98;68.05;100589.66;5022127;28;66619;-36
2023/09/17 10:24:23;;;;;;;;;;;;;;;31.97;68.38;100593.41;5024155;28;70481;-36
2023/09/17 10:26:54;;;;;;;;;;;;;;;31.95;68.19;100595.53;5022570;28;65383;-36
2023/09/17 10:29:24;;;;;;;;;;;;;;;31.92;68.40;100606.84;5019262;28;69490;-37
2023/09/17 10:31:56;;;;;;;;;;;;;;;31.91;68.82;100616.06;5022266;28;65606;-35
2023/09/17 10:34:27;;;;;;;;;;;;;;;31.88;68.78;100613.78;5010566;28;69698;-35
2023/09/17 10:36:57;;;;;;;;;;;;;;;31.86;68.58;100613.19;5020323;28;67719;-38
2023/09/17 10:39:27;;;;;;;;;;;;;;;31.85;68.78;100614.25;5019896;28;70080;-38
2023/09/17 10:41:57;;;;;;;;;;;;;;;31.85;68.74;100616.16;5024247;28;65794;-37
2023/09/17 10:44:29;;;;;;;;;;;;;;;31.84;69.01;100626.16;5019994;28;69862;-37
2023/09/17 10:47:00;;;;;;;;;;;;;;;31.82;69.52;100641.84;5026294;28;66545;-38
2023/09/17 10:49:31;;;;;;;;;;;;;;;31.81;69.84;100649.13;5039492;28;69309;-39
2023/09/17 10:52:02;;;;;;;;;;;;;;;31.80;69.86;100652.94;5011433;28;65221;-38
2023/09/17 10:54:33;;;;;;;;;;;;;;;31.74;73.56;100672.84;5021220;28;69178;-37
2023/09/17 10:57:06;;;;;;;;;;;;;;;31.64;75.33;100672.56;5013765;28;66120;-38
2023/09/17 10:59:36;;;;;;;;;;;;;;;31.57;76.35;100680.81;5014496;28;69237;-38
2023/09/17 11:02:07;;;;;;;;;;;;;;;31.49;78.06;100694.69;5010586;28;66324;-39
2023/09/17 11:04:39;;;;;;;;;;;;;;;31.46;78.95;100703.28;5003013;28;69894;-36
2023/09/17 11:07:10;;;;;;;;;;;;;;;31.41;79.17;100713.97;5018449;28;66557;-37
2023/09/17 11:09:41;;;;;;;;;;;;;;;31.35;79.43;100726.50;5007792;28;68928;-37
2023/09/17 11:12:13;;;;;;;;;;;;;;;31.34;79.40;100748.41;5017876;28;65116;-38
2023/09/17 11:14:45;;;;;;;;;;;;;;;31.34;79.59;100776.38;5009124;28;71624;-37
2023/09/17 11:17:17;;;;;;;;;;;;;;;31.33;79.32;100792.84;5022558;28;66803;-37
2023/09/17 11:19:47;;;;;;;;;;;;;;;31.31;79.64;100784.91;4995838;28;69667;-39
2023/09/17 11:22:44;;;;;;;;;;;;;;;31.29;78.52;100778.91;5001507;28;66204;-37
2023/09/17 11:25:51;;;;;;;;;;;;;;;31.15;76.16;100766.56;4952736;28;70102;-38
2023/09/17 11:28:33;;;;;;;;;;;;;;;31.00;75.05;100758.78;4930322;28;65998;-36
2023/09/17 11:31:03;;;;;;;;;;;;;;;30.93;74.08;100763.47;5009834;28;70534;-38
2023/09/17 11:33:35;;;;;;;;;;;;;;;30.88;73.42;100760.59;5014867;28;66850;-39
2023/09/17 11:36:06;;;;;;;;;;;;;;;30.81;73.09;100765.22;5018738;28;69335;-36
2023/09/17 11:38:36;;;;;;;;;;;;;;;30.73;72.25;100777.97;5023856;28;66630;-37
2023/09/17 11:41:07;;;;;;;;;;;;;;;30.64;71.77;100773.88;5015547;28;70223;-38
2023/09/17 11:43:38;;;;;;;;;;;;;;;30.57;71.05;100767.72;5015476;28;66206;-39
2023/09/17 11:46:08;;;;;;;;;;;;;;;30.55;72.26;100766.25;5013821;28;69900;-37
2023/09/17 11:48:39;;;;;;;;;;;;;;;30.45;71.97;100769.44;4998088;28;66080;-39
2023/09/17 11:51:26;;;;;;;;;;;;;;;30.36;72.60;100773.50;5023445;28;70440;-36
2023/09/17 11:53:59;;;;;;;;;;;;;;;30.35;72.74;100774.53;5011438;28;66255;-37
2023/09/17 11:56:32;;;;;;;;;;;;;;;30.35;72.46;100779.97;5012095;28;69823;-37
2023/09/17 11:59:04;;;;;;;;;;;;;;;30.37;71.43;100796.78;5013431;28;66160;-35
2023/09/17 12:01:38;;;;;;;;;;;;;;;30.38;70.57;100806.59;5021723;28;70104;-37
2023/09/17 12:04:11;;;;;;;;;;;;;;;30.38;69.38;100812.81;5010276;28;67080;-35
2023/09/17 12:06:42;;;;;;;;;;;;;;;30.41;68.97;100825.09;5020614;28;69854;-36
2023/09/17 12:10:02;;;;;;;;;;;;;;;30.39;68.83;100830.69;5014312;28;66419;-36
2023/09/17 12:12:26;;;;;;;;;;;;;;;30.43;68.56;100839.25;5005416;28;70272;-35
2023/09/17 12:14:57;;;;;;;;;;;;;;;30.42;67.75;100861.91;5014735;28;66668;-35
2023/09/17 12:18:00;;;;;;;;;;;;;;;30.40;67.64;100866.75;5000429;28;69232;-35
2023/09/17 12:20:56;;;;;;;;;;;;;;;30.39;67.15;100868.59;5012268;28;67151;-35
2023/09/17 12:23:54;;;;;;;;;;;;;;;30.30;67.27;100863.66;5008158;28;69615;-37
2023/09/17 12:29:39;;;;;;;;;;;;;;;30.26;68.01;100868.69;5015603;28;70351;-35
2023/09/17 12:32:10;;;;;;;;;;;;;;;30.25;66.99;100862.41;5015952;28;66568;-36
2023/09/17 12:34:41;;;;;;;;;;;;;;;30.26;66.81;100869.50;5018629;28;70180;-36
2023/09/17 12:37:11;;;;;;;;;;;;;;;30.27;65.87;100864.94;5018430;28;65708;-34
2023/09/17 12:39:44;;;;;;;;;;;;;;;30.27;66.41;100876.56;5018528;28;70182;-36
2023/09/17 12:42:14;;;;;;;;;;;;;;;30.27;65.19;100881.16;5014018;28;66296;-35
2023/09/17 12:44:43;;;;;;;;;;;;;;;30.27;65.24;100884.69;5005587;28;69203;-37
2023/09/17 12:47:13;;;;;;;;;;;;;;;30.21;64.80;100882.81;5016137;28;66183;-36
2023/09/17 12:49:43;;;;;;;;;;;;;;;30.22;65.29;100883.69;5015202;28;69583;-37
2023/09/17 12:52:16;;;;;;;;;;;;;;;30.20;65.88;100874.91;4992982;28;64011;-35
2023/09/17 12:54:46;;;;;;;;;;;;;;;30.20;64.99;100881.19;5011036;28;70054;-35
2023/09/17 12:57:16;;;;;;;;;;;;;;;30.15;64.49;100878.28;5019160;28;66898;-37
2023/09/17 12:59:49;;;;;;;;;;;;;;;30.09;63.74;100884.56;5014996;28;70770;-37